Time;durP1;ratioP1;P1;durP2;ratioP2;P2;SDS_P1;SDS_P2;PMS_P1;PMS_P2;Temp;Humidity;BMP_temperature;BMP_pressure;BME280_temperature;BME280_humidity;BME280_pressure;Samples;Min_cycle;Max_cycle;Signal;HPM_P1;HPM_P2
2021/12/04 00:00:53;;;;;;;19.15;9.32;;;;;;;-3.80;80.82;97589.50;2567102;28;20468;-71
2021/12/04 00:02:08;;;;;;;19.15;9.15;;;;;;;-3.87;80.66;97588.53;2567183;28;20051;-72
2021/12/04 00:03:24;;;;;;;17.52;8.55;;;;;;;-3.76;81.41;97591.28;2567292;28;20047;-71
2021/12/04 00:04:47;;;;;;;20.20;8.80;;;;;;;-3.75;81.18;97593.00;2567270;28;20054;-72
2021/12/04 00:06:09;;;;;;;18.65;9.02;;;;;;;-3.69;81.24;97593.09;2567285;28;20075;-72
2021/12/04 00:07:27;;;;;;;20.60;9.32;;;;;;;-3.63;80.80;97585.53;2567164;28;20125;-72
2021/12/04 00:08:46;;;;;;;22.42;9.90;;;;;;;-3.59;80.76;97592.41;2567266;28;20055;-71
2021/12/04 00:10:03;;;;;;;21.08;9.45;;;;;;;-3.52;80.46;97583.09;2567434;28;20051;-72
2021/12/04 00:11:19;;;;;;;19.70;8.93;;;;;;;-3.52;80.32;97578.00;2569401;28;20482;-71
2021/12/04 00:12:35;;;;;;;24.70;10.48;;;;;;;-3.56;80.16;97577.09;2569188;28;20078;-72
2021/12/04 00:13:51;;;;;;;22.48;9.55;;;;;;;-3.60;79.97;97570.22;2569394;28;20465;-72
2021/12/04 00:15:07;;;;;;;22.17;9.68;;;;;;;-3.61;80.28;97576.16;2569233;28;20047;-71
2021/12/04 00:16:23;;;;;;;21.55;8.02;;;;;;;-3.57;79.95;97575.38;2569140;28;20063;-71
2021/12/04 00:17:39;;;;;;;24.55;9.43;;;;;;;-3.56;80.09;97569.41;2569140;28;20149;-72
2021/12/04 00:18:55;;;;;;;22.35;9.20;;;;;;;-3.56;79.90;97569.41;2569216;28;20093;-71
2021/12/04 00:20:11;;;;;;;20.20;8.85;;;;;;;-3.51;79.73;97566.03;2568917;28;20442;-72
2021/12/04 00:21:26;;;;;;;21.30;9.07;;;;;;;-3.53;79.94;97565.16;2568969;28;20058;-71
2021/12/04 00:22:42;;;;;;;17.67;8.68;;;;;;;-3.50;79.64;97563.50;2569189;28;20525;-72
2021/12/04 00:23:58;;;;;;;20.15;8.15;;;;;;;-3.51;79.81;97559.25;2569142;28;20050;-72
2021/12/04 00:25:13;;;;;;;16.70;7.28;;;;;;;-3.52;79.65;97554.97;2569280;28;20046;-71
2021/12/04 00:26:29;;;;;;;17.90;7.40;;;;;;;-3.52;79.51;97560.06;2569211;28;20051;-71
2021/12/04 00:27:45;;;;;;;15.52;7.57;;;;;;;-3.53;79.25;97560.03;2568995;28;20055;-72
2021/12/04 00:29:01;;;;;;;15.80;7.03;;;;;;;-3.55;79.32;97550.66;2569082;28;20050;-72
2021/12/04 00:30:16;;;;;;;14.18;6.40;;;;;;;-3.53;79.35;97549.81;2569048;28;20062;-72
2021/12/04 00:31:32;;;;;;;15.07;6.43;;;;;;;-3.53;78.94;97549.81;2568997;28;21307;-72
2021/12/04 00:33:01;;;;;;;12.43;5.63;;;;;;;-3.52;78.43;97549.84;2568940;28;20055;-72
2021/12/04 00:34:18;;;;;;;10.13;5.35;;;;;;;-3.47;78.41;97548.19;2568898;28;20086;-71
2021/12/04 00:49:26;;;;;;;12.73;6.15;;;;;;;-3.08;76.21;97517.94;2568942;28;20184;-72
2021/12/04 00:50:42;;;;;;;14.15;6.18;;;;;;;-3.08;76.33;97517.94;2568839;28;20051;-72
2021/12/04 00:51:58;;;;;;;14.93;6.68;;;;;;;-3.12;76.42;97517.06;2568910;28;20047;-71
2021/12/04 00:53:14;;;;;;;12.57;6.22;;;;;;;-3.16;75.92;97515.28;2568958;28;20477;-72
2021/12/04 00:54:29;;;;;;;12.30;5.55;;;;;;;-3.17;76.11;97516.13;2568779;28;20051;-72
2021/12/04 00:55:45;;;;;;;13.80;5.45;;;;;;;-3.09;75.40;97505.97;2568756;28;20089;-72
2021/12/04 00:57:01;;;;;;;16.65;6.50;;;;;;;-3.06;75.08;97511.16;2568853;28;20142;-71
2021/12/04 00:58:16;;;;;;;17.40;6.65;;;;;;;-3.06;74.98;97511.16;2568795;28;20050;-72
2021/12/04 00:59:32;;;;;;;11.73;5.55;;;;;;;-3.10;75.67;97504.25;2568661;28;20058;-72
2021/12/04 01:00:47;;;;;;;13.40;6.00;;;;;;;-3.11;75.59;97497.44;2568569;28;20055;-72
2021/12/04 01:02:04;;;;;;;16.23;6.43;;;;;;;-3.09;76.35;97497.47;2568785;28;20117;-72
2021/12/04 01:03:19;;;;;;;13.30;6.45;;;;;;;-3.13;76.75;97491.44;2568573;28;20615;-72
2021/12/04 01:04:35;;;;;;;12.90;5.93;;;;;;;-3.16;76.86;97492.25;2568546;28;20132;-72
2021/12/04 01:05:50;;;;;;;11.60;5.70;;;;;;;-3.17;76.25;97494.81;2568535;28;20849;-72
2021/12/04 01:07:08;;;;;;;9.90;5.57;;;;;;;-3.19;76.10;97499.06;2568831;28;20552;-72
2021/12/04 01:08:24;;;;;;;10.13;5.22;;;;;;;-3.13;76.05;97492.31;2568642;28;20089;-73
2021/12/04 01:09:39;;;;;;;11.52;6.00;;;;;;;-3.15;75.72;97491.41;2568313;28;20077;-71
2021/12/04 01:10:55;;;;;;;10.77;5.50;;;;;;;-3.06;76.39;97488.13;2568560;28;20051;-71
2021/12/04 01:12:11;;;;;;;12.23;6.40;;;;;;;-2.91;76.01;97484.84;2568640;28;20059;-72
2021/12/04 01:13:27;;;;;;;11.35;5.97;;;;;;;-2.89;75.82;97482.31;2568697;28;20055;-71
2021/12/04 01:14:42;;;;;;;16.02;6.45;;;;;;;-2.86;75.45;97475.53;2568906;28;20054;-72
2021/12/04 01:15:58;;;;;;;14.40;6.63;;;;;;;-2.82;75.46;97467.84;2568427;28;20086;-72
2021/12/04 01:17:14;;;;;;;14.57;6.85;;;;;;;-2.86;75.33;97469.53;2568870;28;20501;-71
2021/12/04 01:18:30;;;;;;;14.30;6.50;;;;;;;-2.93;75.58;97462.59;2568489;28;20051;-72
2021/12/04 01:19:45;;;;;;;15.20;6.75;;;;;;;-2.95;75.56;97461.75;2568346;28;20069;-72
2021/12/04 01:21:01;;;;;;;15.07;6.60;;;;;;;-3.01;75.44;97458.28;2568525;28;20061;-72
2021/12/04 01:22:20;;;;;;;12.75;6.10;;;;;;;-3.06;75.91;97449.72;2567492;28;20051;-72
2021/12/04 01:23:35;;;;;;;11.50;5.43;;;;;;;-3.08;76.07;97448.81;2568536;28;20690;-72
2021/12/04 01:24:51;;;;;;;13.75;5.95;;;;;;;-3.06;76.75;97452.28;2568329;28;20133;-72
2021/12/04 01:26:06;;;;;;;15.93;6.35;;;;;;;-2.95;76.02;97442.13;2568646;28;20502;-72
2021/12/04 01:27:23;;;;;;;16.58;6.45;;;;;;;-2.89;75.66;97443.88;2568511;28;20505;-72
2021/12/04 01:28:38;;;;;;;8.43;4.70;;;;;;;-2.93;75.41;97434.44;2568406;28;20101;-72
2021/12/04 01:29:54;;;;;;;15.68;5.07;;;;;;;-2.89;75.52;97431.91;2568072;28;20089;-72
2021/12/04 01:31:10;;;;;;;9.05;4.53;;;;;;;-2.73;74.53;97430.38;2568441;28;20078;-72
2021/12/04 01:32:26;;;;;;;11.95;5.10;;;;;;;-2.65;74.19;97424.47;2568516;28;20046;-72
2021/12/04 01:33:42;;;;;;;12.20;5.65;;;;;;;-2.60;73.78;97425.34;2568593;28;20379;-72
2021/12/04 01:34:57;;;;;;;13.45;6.00;;;;;;;-2.64;74.21;97418.50;2568429;28;20189;-71
2021/12/04 01:36:13;;;;;;;11.25;5.13;;;;;;;-2.65;73.86;97424.47;2568407;28;20157;-72
2021/12/04 01:37:29;;;;;;;12.90;5.07;;;;;;;-2.68;74.12;97416.72;2568449;28;20121;-72
2021/12/04 01:38:44;;;;;;;8.98;4.93;;;;;;;-2.63;74.07;97415.06;2568205;28;20066;-72
2021/12/04 01:40:00;;;;;;;9.23;4.88;;;;;;;-2.65;74.24;97414.22;2568349;28;20390;-72
2021/12/04 01:41:16;;;;;;;13.25;4.97;;;;;;;-2.59;73.54;97412.53;2568283;28;20062;-72
2021/12/04 01:42:35;;;;;;;9.80;4.93;;;;;;;-2.57;73.56;97415.09;2568502;28;20054;-72
2021/12/04 01:43:51;;;;;;;10.20;5.05;;;;;;;-2.55;73.62;97408.28;2568374;28;20090;-71
2021/12/04 01:45:07;;;;;;;9.10;4.32;;;;;;;-2.59;73.31;97411.69;2568362;28;20497;-72
2021/12/04 01:46:23;;;;;;;9.98;5.10;;;;;;;-2.61;73.61;97405.69;2568222;28;20098;-72
2021/12/04 01:47:39;;;;;;;8.82;4.72;;;;;;;-2.62;73.72;97393.72;2568260;28;20054;-72
2021/12/04 01:48:55;;;;;;;8.90;4.63;;;;;;;-2.59;74.07;97392.03;2568407;28;20057;-71
2021/12/04 01:50:11;;;;;;;10.15;5.20;;;;;;;-2.60;74.13;97392.03;2568340;28;20055;-71
2021/12/04 01:51:27;;;;;;;8.80;4.30;;;;;;;-2.54;73.24;97386.09;2567968;28;20121;-72
2021/12/04 01:52:43;;;;;;;9.48;4.32;;;;;;;-2.57;73.40;97384.34;2568231;28;20054;-73
2021/12/04 01:53:58;;;;;;;10.13;4.47;;;;;;;-2.58;73.65;97380.97;2568406;28;20043;-71
2021/12/04 01:55:14;;;;;;;8.07;3.65;;;;;;;-2.57;73.32;97379.22;2568344;28;20054;-71
2021/12/04 01:56:31;;;;;;;10.07;4.68;;;;;;;-2.46;73.03;97372.47;2568273;28;20078;-71
2021/12/04 01:57:47;;;;;;;10.32;4.93;;;;;;;-2.42;72.82;97374.22;2568012;28;20065;-71
2021/12/04 01:59:03;;;;;;;8.73;4.70;;;;;;;-2.43;73.09;97372.50;2568304;28;20058;-71
2021/12/04 02:00:20;;;;;;;10.57;4.43;;;;;;;-2.44;72.58;97357.97;2568173;28;20134;-71
2021/12/04 02:01:35;;;;;;;9.70;4.40;;;;;;;-2.42;73.16;97360.56;2568024;28;20051;-71
2021/12/04 02:02:51;;;;;;;10.48;4.97;;;;;;;-2.44;72.30;97357.97;2557570;28;20126;-71
2021/12/04 02:04:07;;;;;;;8.50;4.07;;;;;;;-2.50;73.16;97355.38;2561753;28;20049;-71
2021/12/04 02:05:23;;;;;;;11.75;5.25;;;;;;;-2.50;73.27;97352.81;2568241;28;20085;-71
2021/12/04 02:06:38;;;;;;;7.93;3.97;;;;;;;-2.43;72.51;97364.81;2567981;28;20050;-72
2021/12/04 02:07:54;;;;;;;9.38;4.50;;;;;;;-2.44;72.30;97363.09;2568222;28;20497;-72
2021/12/04 02:09:12;;;;;;;10.85;4.35;;;;;;;-2.46;73.03;97369.91;2568362;28;20053;-71
2021/12/04 02:10:27;;;;;;;8.65;4.25;;;;;;;-2.43;72.83;97367.38;2568101;28;20051;-71
2021/12/04 02:11:43;;;;;;;7.90;4.13;;;;;;;-2.41;72.50;97370.78;2567912;28;21117;-71
2021/12/04 02:12:59;;;;;;;9.07;4.28;;;;;;;-2.31;72.01;97365.72;2568227;28;20057;-71
2021/12/04 02:14:15;;;;;;;9.80;5.15;;;;;;;-2.32;72.51;97358.91;2568023;28;20050;-71
2021/12/04 02:15:30;;;;;;;9.60;4.82;;;;;;;-2.34;72.51;97352.91;2567888;28;20059;-71
2021/12/04 02:16:46;;;;;;;10.18;5.20;;;;;;;-2.39;72.90;97352.00;2567966;28;20098;-71
2021/12/04 02:18:06;;;;;;;8.48;4.55;;;;;;;-2.32;71.47;97348.63;2568156;28;20141;-71
2021/12/04 02:19:22;;;;;;;9.98;4.75;;;;;;;-2.33;71.59;97350.34;2568282;28;20568;-72
2021/12/04 02:20:37;;;;;;;8.00;4.05;;;;;;;-2.36;71.74;97346.91;2568097;28;20051;-71
2021/12/04 02:21:53;;;;;;;8.55;4.35;;;;;;;-2.33;71.82;97346.94;2567781;28;20059;-72
2021/12/04 02:23:09;;;;;;;8.10;4.10;;;;;;;-2.36;71.99;97340.06;2568073;28;20400;-71
2021/12/04 02:24:25;;;;;;;9.15;4.32;;;;;;;-2.37;72.84;97335.78;2568104;28;20046;-71
2021/12/04 02:25:42;;;;;;;8.68;4.35;;;;;;;-2.38;72.51;97338.34;2568008;28;20050;-72
2021/12/04 02:26:57;;;;;;;7.95;4.10;;;;;;;-2.36;72.19;97336.66;2567878;28;20133;-72
2021/12/04 02:28:14;;;;;;;9.75;4.63;;;;;;;-2.39;72.33;97334.06;2567901;28;20085;-71
2021/12/04 02:29:29;;;;;;;9.23;4.30;;;;;;;-2.39;72.46;97337.50;2568002;28;20051;-72
2021/12/04 02:30:47;;;;;;;8.77;4.13;;;;;;;-2.40;72.70;97338.34;2567956;28;20057;-71
2021/12/04 02:32:02;;;;;;;8.98;4.50;;;;;;;-2.38;71.81;97336.66;2567749;28;20155;-72
2021/12/04 02:33:20;;;;;;;10.90;4.68;;;;;;;-2.37;72.04;97329.81;2567726;28;20050;-72
2021/12/04 02:34:36;;;;;;;12.57;4.93;;;;;;;-2.34;72.08;97334.97;2568060;28;20051;-72
2021/12/04 02:35:53;;;;;;;8.48;3.90;;;;;;;-2.35;72.05;97328.97;2567760;28;20065;-72
2021/12/04 02:37:09;;;;;;;10.45;4.57;;;;;;;-2.24;71.94;97326.44;2556879;29;20115;-72
2021/12/04 02:38:26;;;;;;;7.95;4.30;;;;;;;-2.21;72.39;97328.19;2561495;28;20039;-72
2021/12/04 02:39:45;;;;;;;9.80;4.32;;;;;;;-2.24;72.44;97329.00;2567819;28;20552;-72
2021/12/04 02:41:01;;;;;;;10.10;4.32;;;;;;;-2.28;72.97;97327.28;2567466;28;20090;-72
2021/12/04 02:42:28;;;;;;;9.73;4.35;;;;;;;-2.28;71.99;97329.84;2567663;28;20113;-71
2021/12/04 02:43:43;;;;;;;8.55;3.80;;;;;;;-2.29;71.38;97328.13;2567860;28;20054;-71
2021/12/04 02:45:02;;;;;;;9.23;4.82;;;;;;;-2.28;71.34;97332.41;2567706;28;20049;-72
2021/12/04 02:46:18;;;;;;;7.47;4.20;;;;;;;-2.26;71.64;97325.59;2567743;28;20413;-72
2021/12/04 02:47:34;;;;;;;7.15;3.97;;;;;;;-2.26;72.02;97315.31;2567521;28;20184;-72
2021/12/04 02:48:50;;;;;;;7.60;3.95;;;;;;;-2.24;71.11;97318.75;2567587;28;20059;-71
2021/12/04 02:50:08;;;;;;;7.95;4.20;;;;;;;-2.25;71.68;97311.91;2567643;28;20047;-71
2021/12/04 02:51:23;;;;;;;8.07;3.85;;;;;;;-2.28;71.78;97306.78;2567658;28;20093;-71
2021/12/04 02:52:40;;;;;;;7.93;4.43;;;;;;;-2.28;72.01;97304.22;2567908;28;20427;-71
2021/12/04 02:53:55;;;;;;;8.93;4.10;;;;;;;-2.29;71.97;97305.94;2567790;28;20062;-72
2021/12/04 02:55:11;;;;;;;7.28;3.97;;;;;;;-2.30;71.84;97301.66;2567784;28;20105;-71
2021/12/04 02:56:27;;;;;;;8.18;3.88;;;;;;;-2.32;72.18;97303.34;2567640;28;20058;-71
2021/12/04 02:57:44;;;;;;;8.05;3.85;;;;;;;-2.32;72.64;97302.50;2557008;29;20062;-71
2021/12/04 02:59:02;;;;;;;8.35;4.25;;;;;;;-2.31;72.29;97294.78;2561521;28;20054;-72
2021/12/04 03:00:21;;;;;;;8.93;3.97;;;;;;;-2.28;72.38;97299.09;2567598;28;20073;-71
2021/12/04 03:01:38;;;;;;;8.35;4.32;;;;;;;-2.28;72.04;97294.84;2567642;28;20106;-72
2021/12/04 03:02:56;;;;;;;8.07;4.15;;;;;;;-2.19;72.59;97283.75;2567629;28;20055;-72
2021/12/04 03:04:13;;;;;;;8.43;4.55;;;;;;;-2.09;71.18;97284.63;2567761;28;20051;-71
2021/12/04 03:05:29;;;;;;;7.45;3.50;;;;;;;-2.08;71.12;97280.38;2567479;28;21110;-72
2021/12/04 03:06:46;;;;;;;6.90;3.60;;;;;;;-2.13;71.22;97281.19;2567784;28;20046;-71
2021/12/04 03:08:03;;;;;;;8.95;4.07;;;;;;;-2.13;71.74;97278.63;2567726;28;20046;-71
2021/12/04 03:09:20;;;;;;;7.65;4.05;;;;;;;-2.13;71.47;97282.94;2567704;28;20152;-72
2021/12/04 03:10:36;;;;;;;7.70;4.00;;;;;;;-2.13;71.48;97276.06;2567162;28;20065;-71
2021/12/04 03:11:51;;;;;;;8.20;3.78;;;;;;;-2.13;71.51;97272.66;2567412;28;20711;-72
2021/12/04 03:13:09;;;;;;;12.07;4.35;;;;;;;-2.12;71.16;97274.38;2567696;28;20401;-72
2021/12/04 03:14:25;;;;;;;10.18;4.85;;;;;;;-2.08;70.65;97268.41;2567689;28;20093;-72
2021/12/04 03:15:44;;;;;;;8.00;3.67;;;;;;;-2.05;70.93;97267.56;2567568;28;20051;-72
2021/12/04 03:17:00;;;;;;;7.88;4.03;;;;;;;-2.01;70.96;97269.28;2567528;28;20089;-71
2021/12/04 03:18:15;;;;;;;8.13;3.85;;;;;;;-2.01;70.95;97256.44;2567690;28;20508;-72
2021/12/04 03:19:33;;;;;;;8.32;3.53;;;;;;;-1.97;70.10;97265.03;2567227;28;20054;-71
2021/12/04 03:20:51;;;;;;;8.25;3.78;;;;;;;-1.93;69.94;97257.34;2567465;28;20485;-71
2021/12/04 03:22:08;;;;;;;5.85;3.25;;;;;;;-1.91;69.70;97255.63;2567520;28;20047;-72
2021/12/04 03:23:30;;;;;;;9.02;4.15;;;;;;;-1.87;69.27;97257.34;2567559;28;20051;-72
2021/12/04 03:24:47;;;;;;;7.00;3.72;;;;;;;-1.87;70.14;97241.09;2567507;28;20051;-72
2021/12/04 03:26:08;;;;;;;9.05;4.53;;;;;;;-1.84;69.81;97243.69;2567558;28;20050;-73
2021/12/04 03:27:25;;;;;;;5.63;3.03;;;;;;;-1.83;69.97;97250.50;2567655;28;20054;-71
2021/12/04 03:28:41;;;;;;;9.70;4.70;;;;;;;-1.81;69.78;97243.66;2567520;28;20050;-71
2021/12/04 03:30:04;;;;;;;8.13;3.70;;;;;;;-1.82;69.70;97239.41;2567213;28;20061;-71
2021/12/04 03:41:43;;;;;;;9.18;3.80;;;;;;;-1.73;69.34;97230.84;2567159;28;20059;-71
2021/12/04 03:43:05;;;;;;;6.90;3.90;;;;;;;-1.69;69.73;97222.28;2567427;28;20482;-72
2021/12/04 03:44:21;;;;;;;8.50;3.90;;;;;;;-1.66;68.97;97218.88;2567247;28;20047;-73
2021/12/04 03:45:40;;;;;;;9.60;4.40;;;;;;;-1.66;69.12;97219.75;2566894;28;20104;-71
2021/12/04 03:46:56;;;;;;;8.13;4.18;;;;;;;-1.66;69.30;97213.75;2567126;28;20058;-72
2021/12/04 03:48:29;;;;;;;10.13;4.18;;;;;;;-1.66;69.49;97218.88;2567465;28;20074;-72
2021/12/04 03:49:44;;;;;;;7.15;3.80;;;;;;;-1.65;68.60;97221.47;2566697;28;20078;-71
2021/12/04 03:51:03;;;;;;;10.85;4.22;;;;;;;-1.64;68.86;97215.47;2567258;28;20398;-72
2021/12/04 03:52:19;;;;;;;7.57;3.33;;;;;;;-1.61;68.70;97220.59;2567306;28;21021;-71
2021/12/04 03:53:35;;;;;;;7.68;4.30;;;;;;;-1.58;68.41;97218.03;2567319;28;20062;-72
2021/12/04 03:54:51;;;;;;;6.40;3.00;;;;;;;-1.53;68.50;97206.94;2567039;28;20054;-72
2021/12/04 03:56:06;;;;;;;7.30;3.60;;;;;;;-1.51;68.11;97215.50;2566676;28;20089;-71
2021/12/04 03:57:22;;;;;;;7.78;3.60;;;;;;;-1.53;68.25;97206.94;2567223;28;20047;-71
2021/12/04 03:58:38;;;;;;;6.85;3.38;;;;;;;-1.51;68.67;97210.34;2567227;28;20512;-72
2021/12/04 03:59:54;;;;;;;5.70;3.00;;;;;;;-1.48;67.28;97210.34;2565618;28;20509;-71
2021/12/04 04:01:10;;;;;;;6.82;3.42;;;;;;;-1.50;67.96;97209.50;2566802;28;20525;-72
2021/12/04 04:02:27;;;;;;;7.13;3.78;;;;;;;-1.48;67.93;97211.19;2567102;28;20113;-72
2021/12/04 04:03:42;;;;;;;7.28;3.63;;;;;;;-1.46;67.92;97209.50;2567044;28;20046;-72
2021/12/04 04:04:58;;;;;;;5.35;3.35;;;;;;;-1.46;67.72;97213.75;2567167;28;20054;-73
2021/12/04 04:06:14;;;;;;;6.32;3.47;;;;;;;-1.45;67.18;97210.34;2567181;28;20070;-71
2021/12/04 04:07:29;;;;;;;6.90;3.67;;;;;;;-1.45;67.74;97213.78;2566707;28;20105;-72
2021/12/04 04:08:45;;;;;;;6.93;3.63;;;;;;;-1.41;67.45;97212.03;2566492;28;20107;-72
2021/12/04 04:10:00;;;;;;;8.30;3.63;;;;;;;-1.43;67.94;97208.63;2567084;28;20050;-71
2021/12/04 04:11:16;;;;;;;6.70;3.45;;;;;;;-1.44;68.23;97206.91;2567176;28;20572;-72
2021/12/04 04:12:32;;;;;;;7.03;3.60;;;;;;;-1.40;68.25;97202.66;2567366;28;20405;-72
2021/12/04 04:13:48;;;;;;;7.22;3.58;;;;;;;-1.40;67.45;97203.47;2567189;28;20401;-72
2021/12/04 04:15:04;;;;;;;9.77;4.35;;;;;;;-1.42;68.01;97205.19;2566913;28;20082;-75
2021/12/04 04:16:19;;;;;;;8.95;3.42;;;;;;;-1.42;67.84;97198.38;2567338;28;20047;-72
2021/12/04 04:17:42;;;;;;;9.73;3.72;;;;;;;-1.43;68.55;97204.34;2566939;28;20985;-71
2021/12/04 04:18:57;;;;;;;;;;;;;;;-1.43;67.87;97203.50;2567994;28;20051;-71
2021/12/04 04:20:17;;;;;;;8.05;3.33;;;;;;;-1.42;67.98;97200.94;2567215;28;19930;-72
2021/12/04 04:21:39;;;;;;;8.13;3.45;;;;;;;-1.44;68.16;97196.66;2567101;28;20079;-71
2021/12/04 04:22:54;;;;;;;8.32;3.45;;;;;;;-1.42;68.12;97197.50;2567181;28;20082;-72
2021/12/04 04:24:14;;;;;;;7.43;3.47;;;;;;;-1.31;67.85;97202.66;2566737;28;20089;-72
2021/12/04 04:25:30;;;;;;;8.88;3.80;;;;;;;-1.34;67.93;97203.50;2566594;28;20113;-72
2021/12/04 04:26:46;;;;;;;7.47;3.90;;;;;;;-1.37;68.01;97195.81;2567303;28;20046;-72
2021/12/04 04:28:02;;;;;;;8.30;3.40;;;;;;;-1.39;67.95;97199.22;2567468;28;20055;-71
2021/12/04 04:29:18;;;;;;;7.55;3.75;;;;;;;-1.41;68.08;97199.22;2567031;28;20256;-71
2021/12/04 04:30:34;;;;;;;9.07;4.05;;;;;;;-1.40;68.60;97198.34;2567347;28;20059;-71
2021/12/04 04:31:49;;;;;;;7.75;3.72;;;;;;;-1.42;68.45;97194.94;2566983;28;20185;-72
2021/12/04 04:33:06;;;;;;;8.07;3.90;;;;;;;-1.41;67.90;97196.63;2567017;28;20051;-72
2021/12/04 04:34:32;;;;;;;8.10;3.70;;;;;;;-1.41;67.87;97191.50;2567266;28;20437;-72
2021/12/04 04:36:01;;;;;;;6.45;3.45;;;;;;;-1.40;67.65;97195.78;2567229;28;20061;-72
2021/12/04 04:37:37;;;;;;;6.57;3.70;;;;;;;-1.40;68.05;97190.66;2567085;28;20081;-72
2021/12/04 05:14:05;;;;;;;6.38;3.55;;;;;;;-1.22;69.44;97192.34;2568814;28;20047;-72
2021/12/04 05:15:42;;;;;;;149.57;67.88;;;;;;;-1.27;69.99;97199.22;2568442;28;20058;-76
2021/12/04 05:17:08;;;;;;;10.52;6.00;;;;;;;-1.32;70.71;97194.06;2568127;28;20043;-72
2021/12/04 05:19:52;;;;;;;6.53;4.53;;;;;;;-1.37;71.71;97200.94;2568694;28;20494;-72
2021/12/04 05:21:12;;;;;;;8.52;4.13;;;;;;;-1.39;71.79;97191.50;2567960;28;20129;-72
2021/12/04 05:22:27;;;;;;;11.50;7.38;;;;;;;-1.39;71.56;97194.94;2568419;28;20505;-72
2021/12/04 05:23:46;;;;;;;6.82;3.20;;;;;;;-1.40;71.70;97189.81;2568726;28;20051;-71
2021/12/04 05:25:01;;;;;;;6.10;2.80;;;;;;;-1.38;72.15;97171.00;2568034;28;20524;-72
2021/12/04 05:26:24;;;;;;;6.47;3.17;;;;;;;-1.38;72.89;97167.56;2568456;28;20047;-72
2021/12/04 05:27:39;;;;;;;6.03;2.92;;;;;;;-1.39;73.09;97160.72;2568814;28;20047;-72
2021/12/04 05:28:59;;;;;;;3.83;2.38;;;;;;;-1.41;73.50;97145.28;2567957;28;20133;-72
2021/12/04 05:30:15;;;;;;;3.88;2.42;;;;;;;-1.43;74.20;97153.03;2568483;28;20051;-75
2021/12/04 05:31:30;;;;;;;6.97;3.70;;;;;;;-1.40;75.04;97146.16;2567786;28;20062;-72
2021/12/04 05:32:46;;;;;;;6.20;3.10;;;;;;;-1.38;75.28;97141.88;2566408;28;20043;-71
2021/12/04 05:34:02;;;;;;;7.70;4.47;;;;;;;-1.29;75.68;97136.75;2567978;28;20404;-72
2021/12/04 05:35:17;;;;;;;3.15;1.85;;;;;;;-1.34;75.92;97138.44;2568379;28;20062;-72
2021/12/04 05:36:33;;;;;;;4.47;2.28;;;;;;;-1.35;76.42;97144.44;2567996;28;20454;-71
2021/12/04 05:37:49;;;;;;;5.07;2.92;;;;;;;-1.40;76.82;97141.03;2567302;28;20046;-71
2021/12/04 05:39:05;;;;;;;5.55;3.42;;;;;;;-1.36;76.71;97147.84;2568040;28;20050;-72
2021/12/04 05:40:21;;;;;;;4.75;2.28;;;;;;;-1.39;76.88;97146.16;2567555;28;20051;-72
2021/12/04 05:41:38;;;;;;;6.65;3.50;;;;;;;-1.39;77.10;97146.16;2567094;28;20059;-72
2021/12/04 05:43:00;;;;;;;3.70;2.45;;;;;;;-1.38;77.83;97139.31;2567104;28;20078;-72
2021/12/04 05:44:18;;;;;;;8.35;4.65;;;;;;;-1.37;78.03;97147.03;2567164;28;20494;-71
2021/12/04 05:45:38;;;;;;;7.82;4.78;;;;;;;-1.37;77.97;97141.88;2567277;28;20054;-72
2021/12/04 05:47:00;;;;;;;5.22;3.03;;;;;;;-1.42;78.62;97141.03;2567711;28;20051;-71
2021/12/04 05:48:22;;;;;;;5.45;3.00;;;;;;;-1.45;78.97;97135.91;2567604;28;20058;-71
2021/12/04 05:49:52;;;;;;;4.22;2.67;;;;;;;-1.46;78.99;97129.06;2567618;28;20050;-72
2021/12/04 05:56:28;;;;;;;7.40;2.78;;;;;;;-1.50;79.62;97128.19;2566876;28;20047;-71
2021/12/04 05:57:44;;;;;;;5.13;2.90;;;;;;;-1.50;79.79;97137.63;2567605;28;20074;-71
2021/12/04 05:59:00;;;;;;;5.72;3.45;;;;;;;-1.50;79.78;97130.75;2567951;28;20055;-72
2021/12/04 06:00:19;;;;;;;8.20;3.53;;;;;;;-1.50;80.07;97137.63;2568347;28;20507;-72
2021/12/04 06:01:35;;;;;;;6.80;3.22;;;;;;;-1.51;79.70;97138.47;2568194;28;20137;-71
2021/12/04 06:02:51;;;;;;;6.07;2.67;;;;;;;-1.51;79.84;97139.31;2568238;28;20133;-72
2021/12/04 06:04:07;;;;;;;5.22;2.83;;;;;;;-1.48;80.09;97146.16;2568204;28;20046;-72
2021/12/04 06:05:22;;;;;;;5.47;2.70;;;;;;;-1.49;79.69;97142.75;2568078;28;20622;-72
2021/12/04 06:06:38;;;;;;;3.88;2.60;;;;;;;-1.48;79.99;97143.59;2568289;28;20051;-71
2021/12/04 06:07:54;;;;;;;3.83;2.30;;;;;;;-1.49;80.05;97147.88;2567696;28;20113;-71
2021/12/04 06:09:10;;;;;;;4.90;3.30;;;;;;;-1.47;79.46;97148.72;2568264;28;20058;-72
2021/12/04 06:10:25;;;;;;;6.25;2.80;;;;;;;-1.45;79.65;97149.59;2567876;28;20047;-71
2021/12/04 06:11:41;;;;;;;6.03;2.83;;;;;;;-1.46;79.59;97152.16;2568182;28;20157;-72
2021/12/04 06:12:57;;;;;;;7.25;4.53;;;;;;;-1.47;79.87;97143.59;2568001;28;20054;-72
2021/12/04 06:14:12;;;;;;;5.18;2.15;;;;;;;-1.44;79.26;97150.44;2567736;28;20046;-71
2021/12/04 06:15:28;;;;;;;5.50;2.60;;;;;;;-1.42;79.43;97151.28;2567964;28;20480;-72
2021/12/04 06:16:43;;;;;;;5.70;2.45;;;;;;;-1.41;79.43;97155.56;2568138;28;20054;-72
2021/12/04 06:18:01;;;;;;;6.32;2.58;;;;;;;-1.45;79.47;97148.72;2568149;28;20051;-72
2021/12/04 06:22:37;;;;;;;6.72;2.70;;;;;;;-1.42;79.84;97159.00;2567970;28;20066;-72
2021/12/04 06:23:53;;;;;;;5.65;2.42;;;;;;;-1.47;80.19;97150.44;2568133;28;20125;-72
2021/12/04 06:25:15;;;;;;;4.95;2.38;;;;;;;-1.50;80.59;97158.16;2567853;28;20054;-72
2021/12/04 06:26:33;;;;;;;4.35;2.42;;;;;;;-1.50;80.94;97165.84;2568152;28;20046;-71
2021/12/04 06:27:48;;;;;;;6.00;2.75;;;;;;;-1.48;80.81;97161.56;2567892;28;20046;-72
2021/12/04 06:29:04;;;;;;;5.10;2.85;;;;;;;-1.48;81.65;97167.53;2568068;28;20086;-71
2021/12/04 06:30:20;;;;;;;5.88;2.80;;;;;;;-1.51;82.09;97169.28;2567025;28;20085;-72
2021/12/04 06:31:36;;;;;;;6.35;3.00;;;;;;;-1.52;81.93;97167.56;2568072;28;20055;-72
2021/12/04 06:32:53;;;;;;;9.75;4.72;;;;;;;-1.52;82.18;97170.16;2567726;28;20382;-72
2021/12/04 06:34:09;;;;;;;13.23;8.05;;;;;;;-1.56;82.64;97170.13;2567966;28;20042;-72
2021/12/04 06:35:25;;;;;;;29.85;13.77;;;;;;;-1.52;82.83;97175.28;2567836;28;20109;-72
2021/12/04 06:36:40;;;;;;;35.85;21.50;;;;;;;-1.56;83.16;97171.84;2566921;28;20497;-71
2021/12/04 06:37:56;;;;;;;22.55;15.00;;;;;;;-1.60;83.40;97171.00;2567609;28;20516;-72
2021/12/04 06:39:12;;;;;;;11.27;7.15;;;;;;;-1.60;83.53;97176.13;2567686;28;20066;-71
2021/12/04 06:40:27;;;;;;;7.45;4.40;;;;;;;-1.53;83.15;97168.44;2567473;28;20046;-72
2021/12/04 06:41:43;;;;;;;6.00;3.17;;;;;;;-1.47;82.87;97168.41;2567834;28;20149;-72
2021/12/04 06:42:59;;;;;;;5.95;3.20;;;;;;;-1.35;82.29;97172.69;2567826;28;20170;-71
2021/12/04 06:44:15;;;;;;;6.50;3.00;;;;;;;-1.33;82.35;97170.97;2567431;28;20090;-72
2021/12/04 06:45:33;;;;;;;15.32;8.57;;;;;;;-1.38;82.62;97160.72;2557011;29;20058;-72
2021/12/04 06:46:49;;;;;;;9.52;5.78;;;;;;;-1.44;82.99;97163.28;2561636;28;20117;-74
2021/12/04 06:48:09;;;;;;;10.27;5.05;;;;;;;-1.48;83.09;97169.28;2567443;28;20074;-72
2021/12/04 06:49:30;;;;;;;7.20;3.92;;;;;;;-1.49;83.34;97173.53;2567687;28;20054;-74
2021/12/04 06:50:50;;;;;;;8.00;3.88;;;;;;;-1.53;83.66;97164.13;2567851;28;20051;-72
2021/12/04 06:52:10;;;;;;;10.20;3.65;;;;;;;-1.48;83.41;97164.97;2567372;28;20046;-72
2021/12/04 06:54:51;;;;;;;6.97;3.75;;;;;;;-1.38;82.69;97172.69;2567623;28;20051;-72
2021/12/04 06:56:08;;;;;;;7.05;3.40;;;;;;;-1.41;82.38;97165.84;2567491;28;20046;-72
2021/12/04 06:57:24;;;;;;;7.82;4.07;;;;;;;-1.35;81.89;97170.97;2567605;28;21168;-72
2021/12/04 06:58:40;;;;;;;10.13;5.68;;;;;;;-1.36;81.81;97169.28;2567589;28;20062;-72
2021/12/04 06:59:57;;;;;;;11.40;7.78;;;;;;;-1.44;82.86;97168.41;2567528;28;20054;-72
2021/12/04 07:01:13;;;;;;;16.95;13.23;;;;;;;-1.49;83.19;97172.69;2567478;28;20414;-72
2021/12/04 07:02:29;;;;;;;45.75;32.60;;;;;;;-1.56;83.43;97162.41;2567829;28;20055;-72
2021/12/04 07:03:44;;;;;;;17.85;12.30;;;;;;;-1.60;83.92;97165.00;2567516;28;20051;-72
2021/12/04 07:05:00;;;;;;;14.65;9.25;;;;;;;-1.62;84.37;97164.13;2567427;28;20051;-71
2021/12/04 07:06:16;;;;;;;20.98;13.10;;;;;;;-1.61;84.17;97160.72;2567493;28;20046;-71
2021/12/04 07:07:31;;;;;;;11.43;6.30;;;;;;;-1.62;84.17;97161.56;2565031;28;20074;-72
2021/12/04 07:08:47;;;;;;;12.57;7.78;;;;;;;-1.67;84.60;97158.16;2567267;28;20047;-71
2021/12/04 07:10:03;;;;;;;21.50;12.35;;;;;;;-1.60;84.22;97150.44;2566897;28;20078;-71
2021/12/04 07:11:18;;;;;;;18.92;10.75;;;;;;;-1.60;84.05;97147.88;2566353;28;20042;-72